sensor_id;sensor_type;location;lat;lon;timestamp;P1;durP1;ratioP1;P2;durP2;ratioP2
24153;SDS011;12312;53.362;-1.518;2023-04-25T00:02:19;13.35;;;3.47;;
24153;SDS011;12312;53.362;-1.518;2023-04-25T00:05:03;10.23;;;3.10;;
24153;SDS011;12312;53.362;-1.518;2023-04-25T00:07:48;11.38;;;2.33;;
24153;SDS011;12312;53.362;-1.518;2023-04-25T00:10:33;9.35;;;2.60;;
24153;SDS011;12312;53.362;-1.518;2023-04-25T00:13:17;9.80;;;2.58;;
24153;SDS011;12312;53.362;-1.518;2023-04-25T00:16:01;15.27;;;2.63;;
24153;SDS011;12312;53.362;-1.518;2023-04-25T00:18:46;9.25;;;2.47;;
24153;SDS011;12312;53.362;-1.518;2023-04-25T00:21:34;15.07;;;3.20;;
24153;SDS011;12312;53.362;-1.518;2023-04-25T00:24:19;11.40;;;2.83;;
24153;SDS011;12312;53.362;-1.518;2023-04-25T00:27:03;9.43;;;2.47;;
24153;SDS011;12312;53.362;-1.518;2023-04-25T00:29:47;16.10;;;2.80;;
24153;SDS011;12312;53.362;-1.518;2023-04-25T00:32:31;6.90;;;2.20;;
24153;SDS011;12312;53.362;-1.518;2023-04-25T00:35:15;9.82;;;2.47;;
24153;SDS011;12312;53.362;-1.518;2023-04-25T00:38:00;11.20;;;3.53;;
24153;SDS011;12312;53.362;-1.518;2023-04-25T00:40:44;15.52;;;2.72;;
24153;SDS011;12312;53.362;-1.518;2023-04-25T00:43:28;10.13;;;2.67;;
24153;SDS011;12312;53.362;-1.518;2023-04-25T00:46:15;11.23;;;2.63;;
24153;SDS011;12312;53.362;-1.518;2023-04-25T00:48:59;14.27;;;2.58;;
24153;SDS011;12312;53.362;-1.518;2023-04-25T00:51:43;14.35;;;2.63;;
24153;SDS011;12312;53.362;-1.518;2023-04-25T00:54:28;11.95;;;2.85;;
24153;SDS011;12312;53.362;-1.518;2023-04-25T00:59:59;10.88;;;2.50;;
24153;SDS011;12312;53.362;-1.518;2023-04-25T01:02:43;10.25;;;2.28;;
24153;SDS011;12312;53.362;-1.518;2023-04-25T01:05:29;10.88;;;2.55;;
24153;SDS011;12312;53.362;-1.518;2023-04-25T01:08:13;10.98;;;2.30;;
24153;SDS011;12312;53.362;-1.518;2023-04-25T01:10:58;14.45;;;2.75;;
24153;SDS011;12312;53.362;-1.518;2023-04-25T01:13:42;9.68;;;2.22;;
24153;SDS011;12312;53.362;-1.518;2023-04-25T01:16:26;9.35;;;2.80;;
24153;SDS011;12312;53.362;-1.518;2023-04-25T01:19:10;11.38;;;2.90;;
24153;SDS011;12312;53.362;-1.518;2023-04-25T01:21:55;10.25;;;2.70;;
24153;SDS011;12312;53.362;-1.518;2023-04-25T01:24:40;11.93;;;2.92;;
24153;SDS011;12312;53.362;-1.518;2023-04-25T01:27:24;10.00;;;2.05;;
24153;SDS011;12312;53.362;-1.518;2023-04-25T01:30:09;10.90;;;2.63;;
24153;SDS011;12312;53.362;-1.518;2023-04-25T01:32:54;10.40;;;3.65;;
24153;SDS011;12312;53.362;-1.518;2023-04-25T01:38:24;9.88;;;2.30;;
24153;SDS011;12312;53.362;-1.518;2023-04-25T01:41:08;11.07;;;2.75;;
24153;SDS011;12312;53.362;-1.518;2023-04-25T01:43:53;11.52;;;2.58;;
24153;SDS011;12312;53.362;-1.518;2023-04-25T01:46:37;9.18;;;2.35;;
24153;SDS011;12312;53.362;-1.518;2023-04-25T01:49:21;8.30;;;2.15;;
24153;SDS011;12312;53.362;-1.518;2023-04-25T01:52:05;10.70;;;2.25;;
24153;SDS011;12312;53.362;-1.518;2023-04-25T01:54:49;13.68;;;2.78;;
24153;SDS011;12312;53.362;-1.518;2023-04-25T02:00:19;8.77;;;1.92;;
24153;SDS011;12312;53.362;-1.518;2023-04-25T02:03:04;13.50;;;2.30;;
24153;SDS011;12312;53.362;-1.518;2023-04-25T02:05:49;12.15;;;2.72;;
24153;SDS011;12312;53.362;-1.518;2023-04-25T02:08:33;9.88;;;2.35;;
24153;SDS011;12312;53.362;-1.518;2023-04-25T02:11:17;9.10;;;2.47;;
24153;SDS011;12312;53.362;-1.518;2023-04-25T02:14:01;8.40;;;2.25;;
24153;SDS011;12312;53.362;-1.518;2023-04-25T02:16:45;8.63;;;2.30;;
24153;SDS011;12312;53.362;-1.518;2023-04-25T02:19:29;10.00;;;2.05;;
24153;SDS011;12312;53.362;-1.518;2023-04-25T02:22:14;10.02;;;2.20;;
24153;SDS011;12312;53.362;-1.518;2023-04-25T02:24:58;6.55;;;2.05;;
24153;SDS011;12312;53.362;-1.518;2023-04-25T02:27:42;10.10;;;2.33;;
24153;SDS011;12312;53.362;-1.518;2023-04-25T02:30:26;8.18;;;2.10;;
24153;SDS011;12312;53.362;-1.518;2023-04-25T02:33:11;10.32;;;1.95;;
24153;SDS011;12312;53.362;-1.518;2023-04-25T02:35:55;7.03;;;2.22;;
24153;SDS011;12312;53.362;-1.518;2023-04-25T02:38:39;5.40;;;2.33;;
24153;SDS011;12312;53.362;-1.518;2023-04-25T02:41:23;6.32;;;2.00;;
24153;SDS011;12312;53.362;-1.518;2023-04-25T02:44:07;9.68;;;1.80;;
24153;SDS011;12312;53.362;-1.518;2023-04-25T02:46:51;9.55;;;2.40;;
24153;SDS011;12312;53.362;-1.518;2023-04-25T02:49:35;12.18;;;2.13;;
24153;SDS011;12312;53.362;-1.518;2023-04-25T02:52:19;7.78;;;2.60;;
24153;SDS011;12312;53.362;-1.518;2023-04-25T02:55:03;5.72;;;1.98;;
24153;SDS011;12312;53.362;-1.518;2023-04-25T02:57:47;9.50;;;2.40;;
24153;SDS011;12312;53.362;-1.518;2023-04-25T03:00:31;10.38;;;2.45;;
24153;SDS011;12312;53.362;-1.518;2023-04-25T03:03:15;7.38;;;2.13;;
24153;SDS011;12312;53.362;-1.518;2023-04-25T03:06:05;12.05;;;2.47;;
24153;SDS011;12312;53.362;-1.518;2023-04-25T03:08:49;12.07;;;2.22;;
24153;SDS011;12312;53.362;-1.518;2023-04-25T03:11:33;7.28;;;2.17;;
24153;SDS011;12312;53.362;-1.518;2023-04-25T03:14:17;9.98;;;2.08;;
24153;SDS011;12312;53.362;-1.518;2023-04-25T03:17:01;7.18;;;1.85;;
24153;SDS011;12312;53.362;-1.518;2023-04-25T03:19:45;8.43;;;2.10;;
24153;SDS011;12312;53.362;-1.518;2023-04-25T03:22:29;14.65;;;2.05;;
24153;SDS011;12312;53.362;-1.518;2023-04-25T03:25:13;6.25;;;1.98;;
24153;SDS011;12312;53.362;-1.518;2023-04-25T03:27:57;8.07;;;2.17;;
24153;SDS011;12312;53.362;-1.518;2023-04-25T03:30:41;18.00;;;2.90;;
24153;SDS011;12312;53.362;-1.518;2023-04-25T03:33:25;6.13;;;1.67;;
24153;SDS011;12312;53.362;-1.518;2023-04-25T03:36:09;7.25;;;2.28;;
24153;SDS011;12312;53.362;-1.518;2023-04-25T03:38:53;10.00;;;2.30;;
24153;SDS011;12312;53.362;-1.518;2023-04-25T03:41:37;7.88;;;2.08;;
24153;SDS011;12312;53.362;-1.518;2023-04-25T03:44:21;14.40;;;2.20;;
24153;SDS011;12312;53.362;-1.518;2023-04-25T03:47:05;8.45;;;1.77;;
24153;SDS011;12312;53.362;-1.518;2023-04-25T03:49:50;9.25;;;1.98;;
24153;SDS011;12312;53.362;-1.518;2023-04-25T03:52:35;11.27;;;2.33;;
24153;SDS011;12312;53.362;-1.518;2023-04-25T03:55:19;4.90;;;2.22;;
24153;SDS011;12312;53.362;-1.518;2023-04-25T03:58:03;11.10;;;1.80;;
24153;SDS011;12312;53.362;-1.518;2023-04-25T04:00:47;10.02;;;2.15;;
24153;SDS011;12312;53.362;-1.518;2023-04-25T04:03:31;9.20;;;2.08;;
24153;SDS011;12312;53.362;-1.518;2023-04-25T04:06:16;8.07;;;1.95;;
24153;SDS011;12312;53.362;-1.518;2023-04-25T04:09:00;5.50;;;2.47;;
24153;SDS011;12312;53.362;-1.518;2023-04-25T04:11:44;10.35;;;2.20;;
24153;SDS011;12312;53.362;-1.518;2023-04-25T04:14:28;5.93;;;1.65;;
24153;SDS011;12312;53.362;-1.518;2023-04-25T04:17:15;6.75;;;1.90;;
24153;SDS011;12312;53.362;-1.518;2023-04-25T04:19:59;6.05;;;1.95;;
24153;SDS011;12312;53.362;-1.518;2023-04-25T04:22:43;6.70;;;2.20;;
24153;SDS011;12312;53.362;-1.518;2023-04-25T04:25:27;10.23;;;2.22;;
24153;SDS011;12312;53.362;-1.518;2023-04-25T04:28:12;11.32;;;2.50;;
24153;SDS011;12312;53.362;-1.518;2023-04-25T04:30:56;9.10;;;2.08;;
24153;SDS011;12312;53.362;-1.518;2023-04-25T04:33:41;7.13;;;2.40;;
24153;SDS011;12312;53.362;-1.518;2023-04-25T04:36:25;7.30;;;1.90;;
24153;SDS011;12312;53.362;-1.518;2023-04-25T04:39:10;6.22;;;1.73;;
24153;SDS011;12312;53.362;-1.518;2023-04-25T04:41:54;6.93;;;2.20;;
24153;SDS011;12312;53.362;-1.518;2023-04-25T04:44:38;10.02;;;2.22;;
24153;SDS011;12312;53.362;-1.518;2023-04-25T04:47:22;10.25;;;2.10;;
24153;SDS011;12312;53.362;-1.518;2023-04-25T04:50:07;8.98;;;2.08;;
24153;SDS011;12312;53.362;-1.518;2023-04-25T04:52:52;9.32;;;2.95;;
24153;SDS011;12312;53.362;-1.518;2023-04-25T04:55:38;15.63;;;2.10;;
24153;SDS011;12312;53.362;-1.518;2023-04-25T04:58:22;7.15;;;1.90;;
24153;SDS011;12312;53.362;-1.518;2023-04-25T05:01:06;6.05;;;1.80;;
24153;SDS011;12312;53.362;-1.518;2023-04-25T05:03:51;5.85;;;1.55;;
24153;SDS011;12312;53.362;-1.518;2023-04-25T05:06:35;11.23;;;2.00;;
24153;SDS011;12312;53.362;-1.518;2023-04-25T05:09:19;10.52;;;1.88;;
24153;SDS011;12312;53.362;-1.518;2023-04-25T05:12:03;9.77;;;2.17;;
24153;SDS011;12312;53.362;-1.518;2023-04-25T05:14:48;9.70;;;2.13;;
24153;SDS011;12312;53.362;-1.518;2023-04-25T05:17:32;11.68;;;1.90;;
24153;SDS011;12312;53.362;-1.518;2023-04-25T05:20:16;5.45;;;2.10;;
24153;SDS011;12312;53.362;-1.518;2023-04-25T05:25:47;10.25;;;2.15;;
24153;SDS011;12312;53.362;-1.518;2023-04-25T05:28:31;10.00;;;2.20;;
24153;SDS011;12312;53.362;-1.518;2023-04-25T05:31:15;8.10;;;2.00;;
24153;SDS011;12312;53.362;-1.518;2023-04-25T05:33:59;7.25;;;2.13;;
24153;SDS011;12312;53.362;-1.518;2023-04-25T05:36:43;8.75;;;1.95;;
24153;SDS011;12312;53.362;-1.518;2023-04-25T05:39:28;11.57;;;2.22;;
24153;SDS011;12312;53.362;-1.518;2023-04-25T05:42:12;7.50;;;2.10;;
24153;SDS011;12312;53.362;-1.518;2023-04-25T05:44:56;8.60;;;2.10;;
24153;SDS011;12312;53.362;-1.518;2023-04-25T05:47:40;8.88;;;1.90;;
24153;SDS011;12312;53.362;-1.518;2023-04-25T05:50:25;6.10;;;2.10;;
24153;SDS011;12312;53.362;-1.518;2023-04-25T05:53:09;9.18;;;1.77;;
24153;SDS011;12312;53.362;-1.518;2023-04-25T05:55:54;5.93;;;1.80;;
24153;SDS011;12312;53.362;-1.518;2023-04-25T05:58:38;8.50;;;2.45;;
24153;SDS011;12312;53.362;-1.518;2023-04-25T06:01:23;8.32;;;1.77;;
24153;SDS011;12312;53.362;-1.518;2023-04-25T06:04:07;14.00;;;2.65;;
24153;SDS011;12312;53.362;-1.518;2023-04-25T06:06:51;10.50;;;2.08;;
24153;SDS011;12312;53.362;-1.518;2023-04-25T06:09:34;5.93;;;2.45;;
24153;SDS011;12312;53.362;-1.518;2023-04-25T06:12:19;10.23;;;2.10;;
24153;SDS011;12312;53.362;-1.518;2023-04-25T06:15:03;12.20;;;2.10;;
24153;SDS011;12312;53.362;-1.518;2023-04-25T06:17:47;10.38;;;2.70;;
24153;SDS011;12312;53.362;-1.518;2023-04-25T06:20:32;6.85;;;2.08;;
24153;SDS011;12312;53.362;-1.518;2023-04-25T06:23:16;10.60;;;1.85;;
24153;SDS011;12312;53.362;-1.518;2023-04-25T06:26:00;8.98;;;2.50;;
24153;SDS011;12312;53.362;-1.518;2023-04-25T06:28:44;8.40;;;2.15;;
24153;SDS011;12312;53.362;-1.518;2023-04-25T06:31:28;6.55;;;2.20;;
24153;SDS011;12312;53.362;-1.518;2023-04-25T06:34:16;8.63;;;1.85;;
24153;SDS011;12312;53.362;-1.518;2023-04-25T06:37:01;8.47;;;2.17;;
24153;SDS011;12312;53.362;-1.518;2023-04-25T06:39:44;5.95;;;2.20;;
24153;SDS011;12312;53.362;-1.518;2023-04-25T06:42:28;6.15;;;2.55;;
24153;SDS011;12312;53.362;-1.518;2023-04-25T06:45:12;6.97;;;2.35;;
24153;SDS011;12312;53.362;-1.518;2023-04-25T06:47:56;6.45;;;2.30;;
24153;SDS011;12312;53.362;-1.518;2023-04-25T06:50:40;11.38;;;2.10;;
24153;SDS011;12312;53.362;-1.518;2023-04-25T06:53:24;10.30;;;2.15;;
24153;SDS011;12312;53.362;-1.518;2023-04-25T06:56:08;9.18;;;3.03;;
24153;SDS011;12312;53.362;-1.518;2023-04-25T06:58:53;6.60;;;1.73;;
24153;SDS011;12312;53.362;-1.518;2023-04-25T07:01:37;9.60;;;2.28;;
24153;SDS011;12312;53.362;-1.518;2023-04-25T07:04:21;7.70;;;1.90;;
24153;SDS011;12312;53.362;-1.518;2023-04-25T07:07:05;6.07;;;2.00;;
24153;SDS011;12312;53.362;-1.518;2023-04-25T07:09:49;5.28;;;1.73;;
24153;SDS011;12312;53.362;-1.518;2023-04-25T07:12:34;6.53;;;1.90;;
24153;SDS011;12312;53.362;-1.518;2023-04-25T07:15:18;12.10;;;2.05;;
24153;SDS011;12312;53.362;-1.518;2023-04-25T07:18:02;8.13;;;2.20;;
24153;SDS011;12312;53.362;-1.518;2023-04-25T07:20:46;12.27;;;2.25;;
24153;SDS011;12312;53.362;-1.518;2023-04-25T07:23:30;7.40;;;2.17;;
24153;SDS011;12312;53.362;-1.518;2023-04-25T07:26:14;6.43;;;1.80;;
24153;SDS011;12312;53.362;-1.518;2023-04-25T07:28:58;7.50;;;2.25;;
24153;SDS011;12312;53.362;-1.518;2023-04-25T07:31:42;5.03;;;2.00;;
24153;SDS011;12312;53.362;-1.518;2023-04-25T07:34:26;8.20;;;2.55;;
24153;SDS011;12312;53.362;-1.518;2023-04-25T07:37:10;9.15;;;2.35;;
24153;SDS011;12312;53.362;-1.518;2023-04-25T07:39:54;11.57;;;2.03;;
24153;SDS011;12312;53.362;-1.518;2023-04-25T07:42:38;8.52;;;2.42;;
24153;SDS011;12312;53.362;-1.518;2023-04-25T07:45:22;9.23;;;2.55;;
24153;SDS011;12312;53.362;-1.518;2023-04-25T07:48:05;9.32;;;2.05;;
24153;SDS011;12312;53.362;-1.518;2023-04-25T07:50:49;11.90;;;2.50;;
24153;SDS011;12312;53.362;-1.518;2023-04-25T07:53:33;9.90;;;2.53;;
24153;SDS011;12312;53.362;-1.518;2023-04-25T07:56:19;4.65;;;1.95;;
24153;SDS011;12312;53.362;-1.518;2023-04-25T07:59:03;7.93;;;2.65;;
24153;SDS011;12312;53.362;-1.518;2023-04-25T08:01:50;10.77;;;2.10;;
24153;SDS011;12312;53.362;-1.518;2023-04-25T08:04:34;10.25;;;2.30;;
24153;SDS011;12312;53.362;-1.518;2023-04-25T08:07:18;7.28;;;2.33;;
24153;SDS011;12312;53.362;-1.518;2023-04-25T08:10:02;3.78;;;2.28;;
24153;SDS011;12312;53.362;-1.518;2023-04-25T08:12:46;3.75;;;2.03;;
24153;SDS011;12312;53.362;-1.518;2023-04-25T08:15:30;7.25;;;1.90;;
24153;SDS011;12312;53.362;-1.518;2023-04-25T08:18:14;5.88;;;2.33;;
24153;SDS011;12312;53.362;-1.518;2023-04-25T08:20:58;6.43;;;2.80;;
24153;SDS011;12312;53.362;-1.518;2023-04-25T08:23:43;10.30;;;2.10;;
24153;SDS011;12312;53.362;-1.518;2023-04-25T08:26:27;7.00;;;2.20;;
24153;SDS011;12312;53.362;-1.518;2023-04-25T08:29:12;5.72;;;2.40;;
24153;SDS011;12312;53.362;-1.518;2023-04-25T08:31:56;7.95;;;2.50;;
24153;SDS011;12312;53.362;-1.518;2023-04-25T08:34:40;7.00;;;2.45;;
24153;SDS011;12312;53.362;-1.518;2023-04-25T08:37:25;8.20;;;2.08;;
24153;SDS011;12312;53.362;-1.518;2023-04-25T08:40:11;5.50;;;2.13;;
24153;SDS011;12312;53.362;-1.518;2023-04-25T08:42:57;8.32;;;2.40;;
24153;SDS011;12312;53.362;-1.518;2023-04-25T08:45:44;6.47;;;2.00;;
24153;SDS011;12312;53.362;-1.518;2023-04-25T08:48:28;7.32;;;2.38;;
24153;SDS011;12312;53.362;-1.518;2023-04-25T08:51:22;6.72;;;2.47;;
24153;SDS011;12312;53.362;-1.518;2023-04-25T08:54:09;11.15;;;2.95;;
24153;SDS011;12312;53.362;-1.518;2023-04-25T08:56:55;6.53;;;2.42;;
24153;SDS011;12312;53.362;-1.518;2023-04-25T09:02:29;7.07;;;2.55;;
24153;SDS011;12312;53.362;-1.518;2023-04-25T09:05:13;5.88;;;2.28;;
24153;SDS011;12312;53.362;-1.518;2023-04-25T09:07:57;6.68;;;2.45;;
24153;SDS011;12312;53.362;-1.518;2023-04-25T09:10:41;10.63;;;2.65;;
24153;SDS011;12312;53.362;-1.518;2023-04-25T09:13:28;5.47;;;2.13;;
24153;SDS011;12312;53.362;-1.518;2023-04-25T09:16:12;4.90;;;2.10;;
24153;SDS011;12312;53.362;-1.518;2023-04-25T09:19:01;3.63;;;2.35;;
24153;SDS011;12312;53.362;-1.518;2023-04-25T09:21:48;4.57;;;1.70;;
24153;SDS011;12312;53.362;-1.518;2023-04-25T09:24:34;3.15;;;1.88;;
24153;SDS011;12312;53.362;-1.518;2023-04-25T09:27:22;3.08;;;2.00;;
24153;SDS011;12312;53.362;-1.518;2023-04-25T09:30:10;5.10;;;2.33;;
24153;SDS011;12312;53.362;-1.518;2023-04-25T09:33:08;4.93;;;2.00;;
24153;SDS011;12312;53.362;-1.518;2023-04-25T09:35:53;5.60;;;2.40;;
24153;SDS011;12312;53.362;-1.518;2023-04-25T09:38:45;4.40;;;2.33;;
24153;SDS011;12312;53.362;-1.518;2023-04-25T09:41:30;3.75;;;1.70;;
24153;SDS011;12312;53.362;-1.518;2023-04-25T09:44:14;5.53;;;2.40;;
24153;SDS011;12312;53.362;-1.518;2023-04-25T09:46:58;7.65;;;2.42;;
24153;SDS011;12312;53.362;-1.518;2023-04-25T09:49:43;6.38;;;2.28;;
24153;SDS011;12312;53.362;-1.518;2023-04-25T09:52:27;5.07;;;2.15;;
24153;SDS011;12312;53.362;-1.518;2023-04-25T09:55:12;4.55;;;2.00;;
24153;SDS011;12312;53.362;-1.518;2023-04-25T09:57:56;7.63;;;2.22;;
24153;SDS011;12312;53.362;-1.518;2023-04-25T10:00:43;5.20;;;2.40;;
24153;SDS011;12312;53.362;-1.518;2023-04-25T10:03:32;6.35;;;2.25;;
24153;SDS011;12312;53.362;-1.518;2023-04-25T10:06:19;8.05;;;2.30;;
24153;SDS011;12312;53.362;-1.518;2023-04-25T10:09:05;4.22;;;1.90;;
24153;SDS011;12312;53.362;-1.518;2023-04-25T10:11:51;5.50;;;2.30;;
24153;SDS011;12312;53.362;-1.518;2023-04-25T10:14:35;6.72;;;2.08;;
24153;SDS011;12312;53.362;-1.518;2023-04-25T10:17:19;5.05;;;2.40;;
24153;SDS011;12312;53.362;-1.518;2023-04-25T10:20:05;5.85;;;2.38;;
24153;SDS011;12312;53.362;-1.518;2023-04-25T10:22:54;6.60;;;2.03;;
24153;SDS011;12312;53.362;-1.518;2023-04-25T10:25:42;6.40;;;2.30;;
24153;SDS011;12312;53.362;-1.518;2023-04-25T10:28:27;5.65;;;1.98;;
24153;SDS011;12312;53.362;-1.518;2023-04-25T10:31:11;5.75;;;1.80;;
24153;SDS011;12312;53.362;-1.518;2023-04-25T10:34:00;4.45;;;2.03;;
24153;SDS011;12312;53.362;-1.518;2023-04-25T10:36:51;6.30;;;2.00;;
24153;SDS011;12312;53.362;-1.518;2023-04-25T10:39:36;6.55;;;2.30;;
24153;SDS011;12312;53.362;-1.518;2023-04-25T10:42:22;4.68;;;2.10;;
24153;SDS011;12312;53.362;-1.518;2023-04-25T10:45:07;4.55;;;1.90;;
24153;SDS011;12312;53.362;-1.518;2023-04-25T10:47:52;5.78;;;2.08;;
24153;SDS011;12312;53.362;-1.518;2023-04-25T10:50:39;4.15;;;2.03;;
24153;SDS011;12312;53.362;-1.518;2023-04-25T10:53:24;5.15;;;2.15;;
24153;SDS011;12312;53.362;-1.518;2023-04-25T10:56:09;3.75;;;2.20;;
24153;SDS011;12312;53.362;-1.518;2023-04-25T10:59:09;4.95;;;1.98;;
24153;SDS011;12312;53.362;-1.518;2023-04-25T11:01:55;7.63;;;2.28;;
24153;SDS011;12312;53.362;-1.518;2023-04-25T11:04:40;4.45;;;2.40;;
24153;SDS011;12312;53.362;-1.518;2023-04-25T11:10:44;7.50;;;2.47;;
24153;SDS011;12312;53.362;-1.518;2023-04-25T11:13:31;7.28;;;2.80;;
24153;SDS011;12312;53.362;-1.518;2023-04-25T11:16:15;7.88;;;2.75;;
24153;SDS011;12312;53.362;-1.518;2023-04-25T11:19:00;7.38;;;3.22;;
24153;SDS011;12312;53.362;-1.518;2023-04-25T11:21:44;7.00;;;2.70;;
24153;SDS011;12312;53.362;-1.518;2023-04-25T11:24:32;8.75;;;3.00;;
24153;SDS011;12312;53.362;-1.518;2023-04-25T11:27:18;4.43;;;2.80;;
24153;SDS011;12312;53.362;-1.518;2023-04-25T11:30:10;6.00;;;3.22;;
24153;SDS011;12312;53.362;-1.518;2023-04-25T11:32:55;7.30;;;3.08;;
24153;SDS011;12312;53.362;-1.518;2023-04-25T11:35:40;5.07;;;2.22;;
24153;SDS011;12312;53.362;-1.518;2023-04-25T11:38:25;5.65;;;2.33;;
24153;SDS011;12312;53.362;-1.518;2023-04-25T11:41:09;5.13;;;2.45;;
24153;SDS011;12312;53.362;-1.518;2023-04-25T11:43:53;5.70;;;2.30;;
24153;SDS011;12312;53.362;-1.518;2023-04-25T11:46:38;7.53;;;2.67;;
24153;SDS011;12312;53.362;-1.518;2023-04-25T11:49:22;6.35;;;3.08;;
24153;SDS011;12312;53.362;-1.518;2023-04-25T11:52:08;6.30;;;2.85;;
24153;SDS011;12312;53.362;-1.518;2023-04-25T11:54:52;7.40;;;2.85;;
24153;SDS011;12312;53.362;-1.518;2023-04-25T11:57:39;10.25;;;2.83;;
24153;SDS011;12312;53.362;-1.518;2023-04-25T12:00:24;4.85;;;2.45;;
24153;SDS011;12312;53.362;-1.518;2023-04-25T12:03:09;6.40;;;2.80;;
24153;SDS011;12312;53.362;-1.518;2023-04-25T12:05:53;6.88;;;2.63;;
24153;SDS011;12312;53.362;-1.518;2023-04-25T12:09:02;5.65;;;2.40;;
24153;SDS011;12312;53.362;-1.518;2023-04-25T12:11:52;7.07;;;2.95;;
24153;SDS011;12312;53.362;-1.518;2023-04-25T12:14:37;5.47;;;2.58;;
24153;SDS011;12312;53.362;-1.518;2023-04-25T12:17:21;9.05;;;2.97;;
24153;SDS011;12312;53.362;-1.518;2023-04-25T12:20:09;4.13;;;2.40;;
24153;SDS011;12312;53.362;-1.518;2023-04-25T12:22:58;7.40;;;2.83;;
24153;SDS011;12312;53.362;-1.518;2023-04-25T12:25:43;5.90;;;3.10;;
24153;SDS011;12312;53.362;-1.518;2023-04-25T12:28:28;6.82;;;2.70;;
24153;SDS011;12312;53.362;-1.518;2023-04-25T12:31:16;5.93;;;2.55;;
24153;SDS011;12312;53.362;-1.518;2023-04-25T12:34:00;4.35;;;2.17;;
24153;SDS011;12312;53.362;-1.518;2023-04-25T12:36:44;5.88;;;2.70;;
24153;SDS011;12312;53.362;-1.518;2023-04-25T12:39:28;9.40;;;3.00;;
24153;SDS011;12312;53.362;-1.518;2023-04-25T12:42:12;4.85;;;2.80;;
24153;SDS011;12312;53.362;-1.518;2023-04-25T12:44:56;7.95;;;2.70;;
24153;SDS011;12312;53.362;-1.518;2023-04-25T12:47:40;8.68;;;2.60;;
24153;SDS011;12312;53.362;-1.518;2023-04-25T12:50:24;7.60;;;2.67;;
24153;SDS011;12312;53.362;-1.518;2023-04-25T12:53:08;8.43;;;2.67;;
24153;SDS011;12312;53.362;-1.518;2023-04-25T12:55:51;5.95;;;2.72;;
24153;SDS011;12312;53.362;-1.518;2023-04-25T12:58:35;9.70;;;2.53;;
24153;SDS011;12312;53.362;-1.518;2023-04-25T13:01:20;8.50;;;2.90;;
24153;SDS011;12312;53.362;-1.518;2023-04-25T13:04:04;6.82;;;2.75;;
24153;SDS011;12312;53.362;-1.518;2023-04-25T13:06:49;6.90;;;3.00;;
24153;SDS011;12312;53.362;-1.518;2023-04-25T13:09:33;5.40;;;2.85;;
24153;SDS011;12312;53.362;-1.518;2023-04-25T13:12:17;4.07;;;2.70;;
24153;SDS011;12312;53.362;-1.518;2023-04-25T13:15:01;6.00;;;2.90;;
24153;SDS011;12312;53.362;-1.518;2023-04-25T13:17:45;7.43;;;2.60;;
24153;SDS011;12312;53.362;-1.518;2023-04-25T13:20:29;7.28;;;3.10;;
24153;SDS011;12312;53.362;-1.518;2023-04-25T13:23:14;7.60;;;2.70;;
24153;SDS011;12312;53.362;-1.518;2023-04-25T13:25:58;4.10;;;2.70;;
24153;SDS011;12312;53.362;-1.518;2023-04-25T13:28:42;7.05;;;2.90;;
24153;SDS011;12312;53.362;-1.518;2023-04-25T13:31:26;7.38;;;2.97;;
24153;SDS011;12312;53.362;-1.518;2023-04-25T13:34:10;4.90;;;2.80;;
24153;SDS011;12312;53.362;-1.518;2023-04-25T13:36:56;4.47;;;2.83;;
24153;SDS011;12312;53.362;-1.518;2023-04-25T13:39:40;9.00;;;3.20;;
24153;SDS011;12312;53.362;-1.518;2023-04-25T13:42:23;7.90;;;3.30;;
24153;SDS011;12312;53.362;-1.518;2023-04-25T13:45:08;6.63;;;3.05;;
24153;SDS011;12312;53.362;-1.518;2023-04-25T13:47:52;7.50;;;2.88;;
24153;SDS011;12312;53.362;-1.518;2023-04-25T13:50:36;8.25;;;4.25;;
24153;SDS011;12312;53.362;-1.518;2023-04-25T13:53:20;9.05;;;3.22;;
24153;SDS011;12312;53.362;-1.518;2023-04-25T13:56:05;8.73;;;3.50;;
24153;SDS011;12312;53.362;-1.518;2023-04-25T13:58:52;5.78;;;3.20;;
24153;SDS011;12312;53.362;-1.518;2023-04-25T14:01:36;6.45;;;2.95;;
24153;SDS011;12312;53.362;-1.518;2023-04-25T14:04:20;8.82;;;2.72;;
24153;SDS011;12312;53.362;-1.518;2023-04-25T14:07:04;6.80;;;3.13;;
24153;SDS011;12312;53.362;-1.518;2023-04-25T14:09:48;10.88;;;3.15;;
24153;SDS011;12312;53.362;-1.518;2023-04-25T14:12:32;6.57;;;3.33;;
24153;SDS011;12312;53.362;-1.518;2023-04-25T14:15:16;7.30;;;3.20;;
24153;SDS011;12312;53.362;-1.518;2023-04-25T14:18:00;8.32;;;2.97;;
24153;SDS011;12312;53.362;-1.518;2023-04-25T14:20:45;3.45;;;2.53;;
24153;SDS011;12312;53.362;-1.518;2023-04-25T14:23:29;5.15;;;3.42;;
24153;SDS011;12312;53.362;-1.518;2023-04-25T14:26:13;6.57;;;3.15;;
24153;SDS011;12312;53.362;-1.518;2023-04-25T14:28:58;9.52;;;3.25;;
24153;SDS011;12312;53.362;-1.518;2023-04-25T14:31:42;5.47;;;2.80;;
24153;SDS011;12312;53.362;-1.518;2023-04-25T14:34:26;6.28;;;2.85;;
24153;SDS011;12312;53.362;-1.518;2023-04-25T14:37:10;6.70;;;3.08;;
24153;SDS011;12312;53.362;-1.518;2023-04-25T14:39:54;9.38;;;3.17;;
24153;SDS011;12312;53.362;-1.518;2023-04-25T14:42:39;8.15;;;2.67;;
24153;SDS011;12312;53.362;-1.518;2023-04-25T14:45:23;8.15;;;2.85;;
24153;SDS011;12312;53.362;-1.518;2023-04-25T14:48:07;5.80;;;2.75;;
24153;SDS011;12312;53.362;-1.518;2023-04-25T14:50:51;5.25;;;2.88;;
24153;SDS011;12312;53.362;-1.518;2023-04-25T14:53:35;4.55;;;2.78;;
24153;SDS011;12312;53.362;-1.518;2023-04-25T14:56:19;4.70;;;2.80;;
24153;SDS011;12312;53.362;-1.518;2023-04-25T14:59:03;6.70;;;2.92;;
24153;SDS011;12312;53.362;-1.518;2023-04-25T15:01:47;8.00;;;3.20;;
24153;SDS011;12312;53.362;-1.518;2023-04-25T15:04:32;5.28;;;2.65;;
24153;SDS011;12312;53.362;-1.518;2023-04-25T15:07:16;6.03;;;2.80;;
24153;SDS011;12312;53.362;-1.518;2023-04-25T15:10:01;7.03;;;3.00;;
24153;SDS011;12312;53.362;-1.518;2023-04-25T15:12:46;10.20;;;3.45;;
24153;SDS011;12312;53.362;-1.518;2023-04-25T15:15:30;5.72;;;3.00;;
24153;SDS011;12312;53.362;-1.518;2023-04-25T15:18:14;4.72;;;2.75;;
24153;SDS011;12312;53.362;-1.518;2023-04-25T15:20:58;6.40;;;2.55;;
24153;SDS011;12312;53.362;-1.518;2023-04-25T15:23:42;6.18;;;2.50;;
24153;SDS011;12312;53.362;-1.518;2023-04-25T15:26:26;7.43;;;2.80;;
24153;SDS011;12312;53.362;-1.518;2023-04-25T15:29:11;5.53;;;2.45;;
24153;SDS011;12312;53.362;-1.518;2023-04-25T15:31:55;3.92;;;2.13;;
24153;SDS011;12312;53.362;-1.518;2023-04-25T15:34:39;4.38;;;2.28;;
24153;SDS011;12312;53.362;-1.518;2023-04-25T15:37:23;4.93;;;2.50;;
24153;SDS011;12312;53.362;-1.518;2023-04-25T15:40:08;5.97;;;2.47;;
24153;SDS011;12312;53.362;-1.518;2023-04-25T15:42:53;5.85;;;2.50;;
24153;SDS011;12312;53.362;-1.518;2023-04-25T15:45:38;6.63;;;2.53;;
24153;SDS011;12312;53.362;-1.518;2023-04-25T15:48:21;4.82;;;2.28;;
24153;SDS011;12312;53.362;-1.518;2023-04-25T15:51:05;7.40;;;2.47;;
24153;SDS011;12312;53.362;-1.518;2023-04-25T15:53:49;6.93;;;2.60;;
24153;SDS011;12312;53.362;-1.518;2023-04-25T15:56:33;4.43;;;2.60;;
24153;SDS011;12312;53.362;-1.518;2023-04-25T15:59:17;3.47;;;2.30;;
24153;SDS011;12312;53.362;-1.518;2023-04-25T16:02:01;4.50;;;2.72;;
24153;SDS011;12312;53.362;-1.518;2023-04-25T16:04:45;4.20;;;2.40;;
24153;SDS011;12312;53.362;-1.518;2023-04-25T16:07:29;4.90;;;2.85;;
24153;SDS011;12312;53.362;-1.518;2023-04-25T16:10:14;5.88;;;3.30;;
24153;SDS011;12312;53.362;-1.518;2023-04-25T16:13:03;6.30;;;2.80;;
24153;SDS011;12312;53.362;-1.518;2023-04-25T16:15:47;7.78;;;2.70;;
24153;SDS011;12312;53.362;-1.518;2023-04-25T16:18:31;5.68;;;3.03;;
24153;SDS011;12312;53.362;-1.518;2023-04-25T16:21:15;6.55;;;2.70;;
24153;SDS011;12312;53.362;-1.518;2023-04-25T16:24:00;6.32;;;2.80;;
24153;SDS011;12312;53.362;-1.518;2023-04-25T16:26:44;5.18;;;2.85;;
24153;SDS011;12312;53.362;-1.518;2023-04-25T16:29:28;5.45;;;3.03;;
24153;SDS011;12312;53.362;-1.518;2023-04-25T16:32:12;4.00;;;2.75;;